sensor_id;sensor_type;location;lat;lon;timestamp;pressure;altitude;pressure_sealevel;temperature;humidity
13952;BME280;39535;52.192;9.886;2023-02-18T00:00:04;101472.75;;;6.84;71.62
13952;BME280;39535;52.192;9.886;2023-02-18T00:02:31;101477.03;;;6.82;72.29
13952;BME280;39535;52.192;9.886;2023-02-18T00:04:58;101469.28;;;6.83;71.12
13952;BME280;39535;52.192;9.886;2023-02-18T00:07:26;101466.75;;;6.86;71.27
13952;BME280;39535;52.192;9.886;2023-02-18T00:09:52;101469.19;;;6.75;72.63
13952;BME280;39535;52.192;9.886;2023-02-18T00:12:18;101457.09;;;6.76;72.59
13952;BME280;39535;52.192;9.886;2023-02-18T00:14:45;101453.63;;;6.77;72.42
13952;BME280;39535;52.192;9.886;2023-02-18T00:17:11;101448.44;;;6.74;73.11
13952;BME280;39535;52.192;9.886;2023-02-18T00:19:37;101426.03;;;6.84;73.14
13952;BME280;39535;52.192;9.886;2023-02-18T00:22:04;101425.00;;;6.69;73.36
13952;BME280;39535;52.192;9.886;2023-02-18T00:24:31;101422.47;;;6.72;72.50
13952;BME280;39535;52.192;9.886;2023-02-18T00:26:58;101425.94;;;6.74;72.16
13952;BME280;39535;52.192;9.886;2023-02-18T00:29:24;101425.88;;;6.71;72.19
13952;BME280;39535;52.192;9.886;2023-02-18T00:31:50;101423.28;;;6.68;72.33
13952;BME280;39535;52.192;9.886;2023-02-18T00:34:17;101426.00;;;6.79;72.39
13952;BME280;39535;52.192;9.886;2023-02-18T00:36:43;101448.50;;;6.80;72.25
13952;BME280;39535;52.192;9.886;2023-02-18T00:39:11;101447.44;;;6.66;72.59
13952;BME280;39535;52.192;9.886;2023-02-18T00:41:40;101438.72;;;6.61;73.46
13952;BME280;39535;52.192;9.886;2023-02-18T00:44:07;101429.22;;;6.61;73.96
13952;BME280;39535;52.192;9.886;2023-02-18T00:46:34;101411.91;;;6.59;73.81
13952;BME280;39535;52.192;9.886;2023-02-18T00:49:02;101405.84;;;6.58;73.92
13952;BME280;39535;52.192;9.886;2023-02-18T00:51:28;101408.56;;;6.69;73.03
13952;BME280;39535;52.192;9.886;2023-02-18T00:53:55;101417.28;;;6.74;73.06
13952;BME280;39535;52.192;9.886;2023-02-18T00:56:22;101411.22;;;6.72;72.28
13952;BME280;39535;52.192;9.886;2023-02-18T00:58:50;101434.59;;;6.75;72.41
13952;BME280;39535;52.192;9.886;2023-02-18T01:01:17;101433.56;;;6.62;73.47
13952;BME280;39535;52.192;9.886;2023-02-18T01:03:44;101431.06;;;6.68;73.17
13952;BME280;39535;52.192;9.886;2023-02-18T01:06:11;101425.97;;;6.78;71.71
13952;BME280;39535;52.192;9.886;2023-02-18T01:08:39;101444.91;;;6.70;73.14
13952;BME280;39535;52.192;9.886;2023-02-18T01:11:07;101430.97;;;6.64;74.29
13952;BME280;39535;52.192;9.886;2023-02-18T01:13:36;101402.25;;;6.50;75.36
13952;BME280;39535;52.192;9.886;2023-02-18T01:16:04;101387.56;;;6.49;74.37
13952;BME280;39535;52.192;9.886;2023-02-18T01:18:30;101378.19;;;6.60;74.07
13952;BME280;39535;52.192;9.886;2023-02-18T01:20:58;101374.63;;;6.53;75.36
13952;BME280;39535;52.192;9.886;2023-02-18T01:23:25;101365.22;;;6.60;74.40
13952;BME280;39535;52.192;9.886;2023-02-18T01:25:52;101374.78;;;6.64;74.23
13952;BME280;39535;52.192;9.886;2023-02-18T01:28:20;101377.50;;;6.75;74.25
13952;BME280;39535;52.192;9.886;2023-02-18T01:30:49;101377.56;;;6.81;74.54
13952;BME280;39535;52.192;9.886;2023-02-18T01:33:17;101372.38;;;6.81;74.58
13952;BME280;39535;52.192;9.886;2023-02-18T01:35:43;101371.59;;;6.87;74.34
13952;BME280;39535;52.192;9.886;2023-02-18T01:38:10;101368.94;;;6.81;75.02
13952;BME280;39535;52.192;9.886;2023-02-18T01:40:44;101376.81;;;6.88;74.18
13952;BME280;39535;52.192;9.886;2023-02-18T01:43:12;101377.66;;;6.86;74.47
13952;BME280;39535;52.192;9.886;2023-02-18T01:45:51;101379.34;;;6.85;74.02
13952;BME280;39535;52.192;9.886;2023-02-18T01:48:24;101362.97;;;6.88;75.37
13952;BME280;39535;52.192;9.886;2023-02-18T01:50:53;101351.81;;;6.98;74.78
13952;BME280;39535;52.192;9.886;2023-02-18T01:53:25;101338.91;;;7.07;74.42
13952;BME280;39535;52.192;9.886;2023-02-18T01:55:53;101344.09;;;7.04;75.05
13952;BME280;39535;52.192;9.886;2023-02-18T01:58:20;101345.81;;;7.05;75.03
13952;BME280;39535;52.192;9.886;2023-02-18T02:00:47;101336.31;;;7.04;75.42
13952;BME280;39535;52.192;9.886;2023-02-18T02:03:13;101319.84;;;7.02;75.80
13952;BME280;39535;52.192;9.886;2023-02-18T02:05:41;101305.94;;;6.94;76.51
13952;BME280;39535;52.192;9.886;2023-02-18T02:08:07;101282.56;;;6.97;76.76
13952;BME280;39535;52.192;9.886;2023-02-18T02:10:44;101263.63;;;7.04;77.22
13952;BME280;39535;52.192;9.886;2023-02-18T02:13:20;101235.94;;;7.09;77.65
13952;BME280;39535;52.192;9.886;2023-02-18T02:15:55;101201.25;;;6.96;79.33
13952;BME280;39535;52.192;9.886;2023-02-18T02:18:33;101167.56;;;7.03;80.05
13952;BME280;39535;52.192;9.886;2023-02-18T02:21:25;101123.44;;;7.04;80.83
13952;BME280;39535;52.192;9.886;2023-02-18T02:24:11;101093.19;;;7.11;
13952;BME280;39535;52.192;9.886;2023-02-18T02:27:08;101074.19;;;7.16;81.29
13952;BME280;39535;52.192;9.886;2023-02-18T02:30:05;101064.53;;;6.95;81.91
13952;BME280;39535;52.192;9.886;2023-02-18T02:35:37;101035.25;;;7.18;82.49
13952;BME280;39535;52.192;9.886;2023-02-18T02:38:13;101039.50;;;7.05;83.06
13952;BME280;39535;52.192;9.886;2023-02-18T02:40:45;101030.06;;;7.16;82.93
13952;BME280;39535;52.192;9.886;2023-02-18T02:43:20;101011.03;;;7.16;83.70
13952;BME280;39535;52.192;9.886;2023-02-18T02:45:54;100997.97;;;7.05;83.88
13952;BME280;39535;52.192;9.886;2023-02-18T02:48:30;100974.63;;;7.07;84.55
13952;BME280;39535;52.192;9.886;2023-02-18T02:51:04;100963.38;;;7.09;84.80
13952;BME280;39535;52.192;9.886;2023-02-18T02:53:34;100966.00;;;7.08;85.37
13952;BME280;39535;52.192;9.886;2023-02-18T02:56:01;100943.50;;;7.08;85.81
13952;BME280;39535;52.192;9.886;2023-02-18T02:58:28;100924.44;;;7.02;87.76
13952;BME280;39535;52.192;9.886;2023-02-18T03:01:12;100883.75;;;6.96;88.63
13952;BME280;39535;52.192;9.886;2023-02-18T03:04:10;100863.00;;;6.99;89.62
13952;BME280;39535;52.192;9.886;2023-02-18T03:06:55;100826.66;;;6.99;90.42
13952;BME280;39535;52.192;9.886;2023-02-18T03:09:33;100802.44;;;6.99;90.75
13952;BME280;39535;52.192;9.886;2023-02-18T03:12:06;100775.63;;;6.96;92.20
13952;BME280;39535;52.192;9.886;2023-02-18T03:14:46;100773.91;;;7.08;92.00
13952;BME280;39535;52.192;9.886;2023-02-18T03:17:22;100754.00;;;7.04;92.22
13952;BME280;39535;52.192;9.886;2023-02-18T03:19:54;100748.81;;;7.07;92.53
13952;BME280;39535;52.192;9.886;2023-02-18T03:22:26;100745.34;;;7.12;92.97
13952;BME280;39535;52.192;9.886;2023-02-18T03:24:56;100722.00;;;7.02;94.29
13952;BME280;39535;52.192;9.886;2023-02-18T03:27:26;100720.25;;;7.11;93.86
13952;BME280;39535;52.192;9.886;2023-02-18T03:29:56;100720.25;;;7.19;94.11
13952;BME280;39535;52.192;9.886;2023-02-18T03:32:26;100723.72;;;7.26;93.28
13952;BME280;39535;52.192;9.886;2023-02-18T03:34:57;100728.03;;;7.36;92.72
13952;BME280;39535;52.192;9.886;2023-02-18T03:37:28;100729.78;;;7.35;92.10
13952;BME280;39535;52.192;9.886;2023-02-18T03:39:56;100744.47;;;7.46;91.65
13952;BME280;39535;52.192;9.886;2023-02-18T03:42:25;100759.16;;;7.54;90.81
13952;BME280;39535;52.192;9.886;2023-02-18T03:44:52;100758.28;;;7.59;90.95
13952;BME280;39535;52.192;9.886;2023-02-18T03:47:18;100755.69;;;7.63;91.47
13952;BME280;39535;52.192;9.886;2023-02-18T03:49:45;100762.63;;;7.61;91.23
13952;BME280;39535;52.192;9.886;2023-02-18T03:52:11;100777.34;;;7.62;90.40
13952;BME280;39535;52.192;9.886;2023-02-18T03:54:39;100796.41;;;7.53;90.30
13952;BME280;39535;52.192;9.886;2023-02-18T03:57:06;100810.25;;;7.54;89.70
13952;BME280;39535;52.192;9.886;2023-02-18T03:59:33;100823.22;;;7.59;89.52
13952;BME280;39535;52.192;9.886;2023-02-18T04:01:59;100823.25;;;7.62;89.68
13952;BME280;39535;52.192;9.886;2023-02-18T04:04:27;100818.06;;;7.62;89.84
13952;BME280;39535;52.192;9.886;2023-02-18T04:06:53;100811.09;;;7.61;90.40
13952;BME280;39535;52.192;9.886;2023-02-18T04:09:19;100795.53;;;7.70;90.47
13952;BME280;39535;52.192;9.886;2023-02-18T04:11:47;100798.97;;;7.76;90.54
13952;BME280;39535;52.192;9.886;2023-02-18T04:14:14;100786.84;;;7.75;90.51
13952;BME280;39535;52.192;9.886;2023-02-18T04:16:40;100756.53;;;7.78;92.35
13952;BME280;39535;52.192;9.886;2023-02-18T04:19:07;100721.88;;;7.82;92.97
13952;BME280;39535;52.192;9.886;2023-02-18T04:21:33;100689.81;;;7.81;94.98
13952;BME280;39535;52.192;9.886;2023-02-18T04:24:00;100660.31;;;7.90;94.76
13952;BME280;39535;52.192;9.886;2023-02-18T04:26:26;100675.03;;;7.97;95.11
13952;BME280;39535;52.192;9.886;2023-02-18T04:28:54;100649.91;;;7.96;95.92
13952;BME280;39535;52.192;9.886;2023-02-18T04:31:20;100637.75;;;7.96;96.42
13952;BME280;39535;52.192;9.886;2023-02-18T04:33:47;100603.16;;;7.88;98.10
13952;BME280;39535;52.192;9.886;2023-02-18T04:36:14;100578.97;;;7.77;99.51
13952;BME280;39535;52.192;9.886;2023-02-18T04:38:40;100572.84;;;7.84;98.95
13952;BME280;39535;52.192;9.886;2023-02-18T04:41:07;100559.91;;;7.81;99.01
13952;BME280;39535;52.192;9.886;2023-02-18T04:43:33;100557.25;;;7.83;99.42
13952;BME280;39535;52.192;9.886;2023-02-18T04:46:01;100559.84;;;7.89;99.36
13952;BME280;39535;52.192;9.886;2023-02-18T04:48:28;100551.22;;;7.82;100.00
13952;BME280;39535;52.192;9.886;2023-02-18T04:50:54;100541.66;;;7.87;99.41
13952;BME280;39535;52.192;9.886;2023-02-18T04:53:20;100544.22;;;7.92;99.67
13952;BME280;39535;52.192;9.886;2023-02-18T04:55:48;100548.56;;;7.91;99.50
13952;BME280;39535;52.192;9.886;2023-02-18T04:58:15;100547.66;;;7.95;99.23
13952;BME280;39535;52.192;9.886;2023-02-18T05:00:41;100552.03;;;7.93;98.82
13952;BME280;39535;52.192;9.886;2023-02-18T05:03:09;100546.81;;;7.90;99.27
13952;BME280;39535;52.192;9.886;2023-02-18T05:05:36;100537.31;;;7.91;99.25
13952;BME280;39535;52.192;9.886;2023-02-18T05:08:02;100541.63;;;7.95;99.45
13952;BME280;39535;52.192;9.886;2023-02-18T05:10:29;100539.03;;;7.92;99.78
13952;BME280;39535;52.192;9.886;2023-02-18T05:12:55;100527.72;;;7.96;100.00
13952;BME280;39535;52.192;9.886;2023-02-18T05:15:22;100529.47;;;7.97;100.00
13952;BME280;39535;52.192;9.886;2023-02-18T05:17:48;100527.72;;;7.98;99.63
13952;BME280;39535;52.192;9.886;2023-02-18T05:20:16;100519.03;;;7.99;100.00
13952;BME280;39535;52.192;9.886;2023-02-18T05:22:42;100516.44;;;7.99;100.00
13952;BME280;39535;52.192;9.886;2023-02-18T05:25:09;100506.03;;;8.00;100.00
13952;BME280;39535;52.192;9.886;2023-02-18T05:27:35;100509.53;;;7.98;100.00
13952;BME280;39535;52.192;9.886;2023-02-18T05:30:02;100498.28;;;7.94;100.00
13952;BME280;39535;52.192;9.886;2023-02-18T05:32:28;100491.34;;;7.96;100.00
13952;BME280;39535;52.192;9.886;2023-02-18T05:34:54;100480.09;;;7.95;100.00
13952;BME280;39535;52.192;9.886;2023-02-18T05:37:22;100485.28;;;7.97;100.00
13952;BME280;39535;52.192;9.886;2023-02-18T05:39:49;100471.41;;;8.00;100.00
13952;BME280;39535;52.192;9.886;2023-02-18T05:42:15;100469.66;;;8.00;100.00
13952;BME280;39535;52.192;9.886;2023-02-18T05:44:41;100469.66;;;8.02;100.00
13952;BME280;39535;52.192;9.886;2023-02-18T05:47:09;100466.16;;;8.04;100.00
13952;BME280;39535;52.192;9.886;2023-02-18T05:49:37;100413.50;;;7.81;100.00
13952;BME280;39535;52.192;9.886;2023-02-18T05:52:04;100373.59;;;7.91;100.00
13952;BME280;39535;52.192;9.886;2023-02-18T05:54:32;100342.53;;;7.75;100.00
13952;BME280;39535;52.192;9.886;2023-02-18T05:56:58;100321.81;;;7.68;100.00
13952;BME280;39535;52.192;9.886;2023-02-18T05:59:25;100306.28;;;7.63;100.00
13952;BME280;39535;52.192;9.886;2023-02-18T06:01:51;100287.25;;;7.60;100.00
13952;BME280;39535;52.192;9.886;2023-02-18T06:04:18;100275.03;;;7.68;100.00
13952;BME280;39535;52.192;9.886;2023-02-18T06:06:44;100286.28;;;7.71;100.00
13952;BME280;39535;52.192;9.886;2023-02-18T06:09:11;100277.63;;;7.69;100.00
13952;BME280;39535;52.192;9.886;2023-02-18T06:11:38;100283.63;;;7.74;100.00
13952;BME280;39535;52.192;9.886;2023-02-18T06:14:05;100295.69;;;7.83;100.00
13952;BME280;39535;52.192;9.886;2023-02-18T06:16:31;100304.34;;;7.81;100.00
13952;BME280;39535;52.192;9.886;2023-02-18T06:18:58;100295.63;;;7.86;100.00
13952;BME280;39535;52.192;9.886;2023-02-18T06:21:25;100292.91;;;7.99;100.00
13952;BME280;39535;52.192;9.886;2023-02-18T06:23:51;100299.00;;;7.99;100.00
13952;BME280;39535;52.192;9.886;2023-02-18T06:26:18;100294.63;;;8.01;100.00
13952;BME280;39535;52.192;9.886;2023-02-18T06:28:45;100288.53;;;8.05;100.00
13952;BME280;39535;52.192;9.886;2023-02-18T06:31:12;100309.28;;;8.08;100.00
13952;BME280;39535;52.192;9.886;2023-02-18T06:33:38;100300.59;;;8.11;100.00
13952;BME280;39535;52.192;9.886;2023-02-18T06:36:07;100306.59;;;8.16;100.00
13952;BME280;39535;52.192;9.886;2023-02-18T06:38:37;100310.03;;;8.20;100.00
13952;BME280;39535;52.192;9.886;2023-02-18T06:41:04;100320.41;;;8.20;100.00
13952;BME280;39535;52.192;9.886;2023-02-18T06:43:31;100327.28;;;8.25;100.00
13952;BME280;39535;52.192;9.886;2023-02-18T06:45:58;100329.81;;;8.31;100.00
13952;BME280;39535;52.192;9.886;2023-02-18T06:48:25;100331.56;;;8.31;100.00
13952;BME280;39535;52.192;9.886;2023-02-18T06:50:51;100328.97;;;8.32;100.00
13952;BME280;39535;52.192;9.886;2023-02-18T06:53:18;100326.38;;;8.29;100.00
13952;BME280;39535;52.192;9.886;2023-02-18T06:55:44;100310.72;;;8.34;100.00
13952;BME280;39535;52.192;9.886;2023-02-18T06:58:12;100301.22;;;8.33;100.00
13952;BME280;39535;52.192;9.886;2023-02-18T07:00:38;100296.84;;;8.33;100.00
13952;BME280;39535;52.192;9.886;2023-02-18T07:03:06;100295.09;;;8.34;100.00
13952;BME280;39535;52.192;9.886;2023-02-18T07:05:33;100289.03;;;8.37;100.00
13952;BME280;39535;52.192;9.886;2023-02-18T07:07:59;100293.31;;;8.42;100.00
13952;BME280;39535;52.192;9.886;2023-02-18T07:10:26;100280.31;;;8.39;100.00
13952;BME280;39535;52.192;9.886;2023-02-18T07:12:52;100257.75;;;8.40;100.00
13952;BME280;39535;52.192;9.886;2023-02-18T07:15:19;100225.69;;;8.41;100.00
13952;BME280;39535;52.192;9.886;2023-02-18T07:17:48;100210.06;;;8.44;100.00
13952;BME280;39535;52.192;9.886;2023-02-18T07:20:16;100193.53;;;8.48;100.00
13952;BME280;39535;52.192;9.886;2023-02-18T07:22:43;100188.19;;;8.57;100.00
13952;BME280;39535;52.192;9.886;2023-02-18T07:25:09;100175.91;;;8.67;100.00
13952;BME280;39535;52.192;9.886;2023-02-18T07:27:35;100175.72;;;8.78;100.00
13952;BME280;39535;52.192;9.886;2023-02-18T07:30:02;100152.25;;;8.82;100.00
13952;BME280;39535;52.192;9.886;2023-02-18T07:32:29;100142.59;;;8.89;100.00
13952;BME280;39535;52.192;9.886;2023-02-18T07:34:55;100133.75;;;8.98;100.00
13952;BME280;39535;52.192;9.886;2023-02-18T07:37:32;100140.63;;;9.02;100.00
13952;BME280;39535;52.192;9.886;2023-02-18T07:40:01;100134.47;;;9.07;100.00
13952;BME280;39535;52.192;9.886;2023-02-18T07:42:28;100130.91;;;9.11;100.00
13952;BME280;39535;52.192;9.886;2023-02-18T07:45:04;100125.53;;;9.21;100.00
13952;BME280;39535;52.192;9.886;2023-02-18T07:47:33;100135.97;;;9.21;100.00
13952;BME280;39535;52.192;9.886;2023-02-18T07:50:06;100146.28;;;9.25;100.00
13952;BME280;39535;52.192;9.886;2023-02-18T07:52:36;100144.59;;;9.23;100.00
13952;BME280;39535;52.192;9.886;2023-02-18T07:55:05;100147.94;;;9.29;100.00
13952;BME280;39535;52.192;9.886;2023-02-18T07:57:32;100134.88;;;9.32;100.00
13952;BME280;39535;52.192;9.886;2023-02-18T08:00:18;100145.34;;;9.29;100.00
13952;BME280;39535;52.192;9.886;2023-02-18T08:02:45;100137.47;;;9.34;100.00
13952;BME280;39535;52.192;9.886;2023-02-18T08:05:11;100140.94;;;9.33;100.00
13952;BME280;39535;52.192;9.886;2023-02-18T08:07:40;100137.47;;;9.34;100.00
13952;BME280;39535;52.192;9.886;2023-02-18T08:10:06;100144.25;;;9.41;100.00
13952;BME280;39535;52.192;9.886;2023-02-18T08:12:33;100128.63;;;9.41;100.00
13952;BME280;39535;52.192;9.886;2023-02-18T08:14:59;100131.22;;;9.41;100.00
13952;BME280;39535;52.192;9.886;2023-02-18T08:17:25;100132.94;;;9.44;100.00
13952;BME280;39535;52.192;9.886;2023-02-18T08:19:52;100135.47;;;9.47;100.00
13952;BME280;39535;52.192;9.886;2023-02-18T08:22:18;100145.00;;;9.49;100.00
13952;BME280;39535;52.192;9.886;2023-02-18T08:24:46;100140.69;;;9.47;100.00
13952;BME280;39535;52.192;9.886;2023-02-18T08:27:12;100133.63;;;9.53;100.00
13952;BME280;39535;52.192;9.886;2023-02-18T08:29:38;100132.81;;;9.50;100.00
13952;BME280;39535;52.192;9.886;2023-02-18T08:32:05;100133.78;;;9.44;100.00
13952;BME280;39535;52.192;9.886;2023-02-18T08:34:31;100126.78;;;9.48;100.00
13952;BME280;39535;52.192;9.886;2023-02-18T08:36:57;100138.06;;;9.47;100.00
13952;BME280;39535;52.192;9.886;2023-02-18T08:39:24;100133.63;;;9.52;100.00
13952;BME280;39535;52.192;9.886;2023-02-18T08:41:51;100141.34;;;9.57;100.00
13952;BME280;39535;52.192;9.886;2023-02-18T08:44:18;100130.94;;;9.57;100.00
13952;BME280;39535;52.192;9.886;2023-02-18T08:46:44;100132.75;;;9.53;100.00
13952;BME280;39535;52.192;9.886;2023-02-18T08:49:12;100130.97;;;9.55;100.00
13952;BME280;39535;52.192;9.886;2023-02-18T08:51:38;100133.50;;;9.60;100.00
13952;BME280;39535;52.192;9.886;2023-02-18T08:54:05;100135.06;;;9.67;100.00
13952;BME280;39535;52.192;9.886;2023-02-18T08:56:31;100145.38;;;9.73;100.00
13952;BME280;39535;52.192;9.886;2023-02-18T08:58:59;100140.06;;;9.79;100.00
13952;BME280;39535;52.192;9.886;2023-02-18T09:01:25;100140.97;;;9.77;100.00
13952;BME280;39535;52.192;9.886;2023-02-18T09:03:52;100145.22;;;9.81;100.00
13952;BME280;39535;52.192;9.886;2023-02-18T09:06:18;100151.31;;;9.81;100.00
13952;BME280;39535;52.192;9.886;2023-02-18T09:08:44;100144.19;;;9.89;100.00
13952;BME280;39535;52.192;9.886;2023-02-18T09:11:11;100144.13;;;9.91;100.00
13952;BME280;39535;52.192;9.886;2023-02-18T09:13:37;100147.59;;;9.93;100.00
13952;BME280;39535;52.192;9.886;2023-02-18T09:16:07;100138.81;;;9.97;100.00
13952;BME280;39535;52.192;9.886;2023-02-18T09:18:35;100152.72;;;9.96;100.00
13952;BME280;39535;52.192;9.886;2023-02-18T09:21:04;100123.09;;;10.00;100.00
13952;BME280;39535;52.192;9.886;2023-02-18T09:23:32;100139.56;;;10.01;100.00
13952;BME280;39535;52.192;9.886;2023-02-18T09:25:59;100133.41;;;10.05;100.00
13952;BME280;39535;52.192;9.886;2023-02-18T09:28:25;100140.31;;;10.09;100.00
13952;BME280;39535;52.192;9.886;2023-02-18T09:30:52;100136.06;;;10.03;100.00
13952;BME280;39535;52.192;9.886;2023-02-18T09:33:20;100132.47;;;10.09;100.00
13952;BME280;39535;52.192;9.886;2023-02-18T09:35:46;100148.03;;;10.12;100.00
13952;BME280;39535;52.192;9.886;2023-02-18T09:38:14;100153.16;;;10.17;100.00
13952;BME280;39535;52.192;9.886;2023-02-18T09:40:43;100168.78;;;10.17;100.00
13952;BME280;39535;52.192;9.886;2023-02-18T09:43:18;100161.84;;;10.17;100.00
13952;BME280;39535;52.192;9.886;2023-02-18T09:45:48;100163.50;;;10.21;100.00
13952;BME280;39535;52.192;9.886;2023-02-18T09:48:15;100177.41;;;10.20;100.00
13952;BME280;39535;52.192;9.886;2023-02-18T09:50:48;100173.84;;;10.24;100.00
13952;BME280;39535;52.192;9.886;2023-02-18T09:53:17;100171.19;;;10.27;100.00
13952;BME280;39535;52.192;9.886;2023-02-18T09:55:44;100168.75;;;10.20;100.00
13952;BME280;39535;52.192;9.886;2023-02-18T09:58:13;100151.34;;;10.20;100.00
13952;BME280;39535;52.192;9.886;2023-02-18T10:00:42;100187.78;;;10.25;100.00
13952;BME280;39535;52.192;9.886;2023-02-18T10:03:12;100165.28;;;10.19;100.00
13952;BME280;39535;52.192;9.886;2023-02-18T10:05:55;100159.97;;;10.22;100.00
13952;BME280;39535;52.192;9.886;2023-02-18T10:08:25;100162.63;;;10.21;100.00
13952;BME280;39535;52.192;9.886;2023-02-18T10:10:52;100162.56;;;10.24;100.00
13952;BME280;39535;52.192;9.886;2023-02-18T10:13:21;100154.88;;;10.18;100.00
13952;BME280;39535;52.192;9.886;2023-02-18T10:15:49;100131.53;;;10.11;100.00
13952;BME280;39535;52.192;9.886;2023-02-18T10:18:24;100142.78;;;10.13;100.00
13952;BME280;39535;52.192;9.886;2023-02-18T10:20:52;100137.50;;;10.17;100.00
13952;BME280;39535;52.192;9.886;2023-02-18T10:23:24;100152.25;;;10.19;100.00
13952;BME280;39535;52.192;9.886;2023-02-18T10:25:51;100147.81;;;10.23;100.00
13952;BME280;39535;52.192;9.886;2023-02-18T10:28:18;100173.72;;;10.32;100.00
13952;BME280;39535;52.192;9.886;2023-02-18T10:30:52;100184.06;;;10.37;100.00
13952;BME280;39535;52.192;9.886;2023-02-18T10:33:33;100172.63;;;10.42;100.00
13952;BME280;39535;52.192;9.886;2023-02-18T10:36:06;100193.47;;;10.42;100.00
13952;BME280;39535;52.192;9.886;2023-02-18T10:38:44;100198.78;;;10.39;100.00
13952;BME280;39535;52.192;9.886;2023-02-18T10:41:21;100203.06;;;10.42;100.00
13952;BME280;39535;52.192;9.886;2023-02-18T10:43:58;100206.63;;;10.39;100.00
13952;BME280;39535;52.192;9.886;2023-02-18T10:46:36;100191.81;;;10.40;100.00
13952;BME280;39535;52.192;9.886;2023-02-18T10:49:26;100204.19;;;10.30;100.00
13952;BME280;39535;52.192;9.886;2023-02-18T10:51:58;100179.94;;;10.25;100.00
13952;BME280;39535;52.192;9.886;2023-02-18T10:54:47;100161.94;;;10.12;100.00
13952;BME280;39535;52.192;9.886;2023-02-18T10:57:17;100124.84;;;10.00;100.00
13952;BME280;39535;52.192;9.886;2023-02-18T10:59:54;100111.84;;;9.98;100.00
13952;BME280;39535;52.192;9.886;2023-02-18T11:02:23;100100.53;;;9.99;100.00
13952;BME280;39535;52.192;9.886;2023-02-18T11:04:50;100097.84;;;10.02;100.00
13952;BME280;39535;52.192;9.886;2023-02-18T11:07:21;100103.88;;;10.04;100.00
13952;BME280;39535;52.192;9.886;2023-02-18T11:09:51;100134.25;;;10.07;100.00
13952;BME280;39535;52.192;9.886;2023-02-18T11:15:57;100153.38;;;10.06;100.00
13952;BME280;39535;52.192;9.886;2023-02-18T11:18:29;100166.31;;;10.10;100.00
13952;BME280;39535;52.192;9.886;2023-02-18T11:20:59;100176.00;;;10.05;100.00
13952;BME280;39535;52.192;9.886;2023-02-18T11:23:26;100142.97;;;10.06;100.00
13952;BME280;39535;52.192;9.886;2023-02-18T11:25:59;100157.09;;;9.96;100.00
13952;BME280;39535;52.192;9.886;2023-02-18T11:28:41;100139.84;;;9.88;100.00
13952;BME280;39535;52.192;9.886;2023-02-18T11:31:09;100134.50;;;9.94;100.00
13952;BME280;39535;52.192;9.886;2023-02-18T11:33:38;100138.75;;;9.99;100.00
13952;BME280;39535;52.192;9.886;2023-02-18T11:36:20;100144.97;;;9.93;100.00
13952;BME280;39535;52.192;9.886;2023-02-18T11:38:50;100126.91;;;9.84;100.00
13952;BME280;39535;52.192;9.886;2023-02-18T11:41:21;100114.00;;;9.79;100.00
13952;BME280;39535;52.192;9.886;2023-02-18T11:43:53;100125.25;;;9.81;100.00
13952;BME280;39535;52.192;9.886;2023-02-18T11:46:22;100116.63;;;9.78;100.00
13952;BME280;39535;52.192;9.886;2023-02-18T11:48:49;100115.84;;;9.72;100.00
13952;BME280;39535;52.192;9.886;2023-02-18T11:51:18;100098.53;;;9.70;100.00
13952;BME280;39535;52.192;9.886;2023-02-18T11:53:57;100100.41;;;9.63;100.00
13952;BME280;39535;52.192;9.886;2023-02-18T11:56:28;100084.53;;;9.74;100.00
13952;BME280;39535;52.192;9.886;2023-02-18T11:58:55;100074.97;;;9.74;100.00
13952;BME280;39535;52.192;9.886;2023-02-18T12:01:30;100068.25;;;9.64;100.00
13952;BME280;39535;52.192;9.886;2023-02-18T12:04:07;100050.81;;;9.68;100.00
13952;BME280;39535;52.192;9.886;2023-02-18T12:06:36;100068.94;;;9.72;100.00
13952;BME280;39535;52.192;9.886;2023-02-18T12:09:08;100063.16;;;9.58;100.00
13952;BME280;39535;52.192;9.886;2023-02-18T12:11:42;100051.00;;;9.57;100.00
13952;BME280;39535;52.192;9.886;2023-02-18T12:14:13;100072.75;;;9.58;100.00
13952;BME280;39535;52.192;9.886;2023-02-18T12:16:51;100076.09;;;9.61;100.00
13952;BME280;39535;52.192;9.886;2023-02-18T12:19:37;100073.41;;;9.67;100.00
13952;BME280;39535;52.192;9.886;2023-02-18T12:22:12;100073.31;;;9.70;100.00
13952;BME280;39535;52.192;9.886;2023-02-18T12:24:52;100076.72;;;9.74;100.00
13952;BME280;39535;52.192;9.886;2023-02-18T12:27:27;100063.84;;;9.66;100.00
13952;BME280;39535;52.192;9.886;2023-02-18T12:30:21;100058.78;;;9.60;100.00
13952;BME280;39535;52.192;9.886;2023-02-18T12:32:55;100064.09;;;9.56;100.00
13952;BME280;39535;52.192;9.886;2023-02-18T12:35:38;100072.91;;;9.48;100.00
13952;BME280;39535;52.192;9.886;2023-02-18T12:38:21;100074.44;;;9.59;100.00
13952;BME280;39535;52.192;9.886;2023-02-18T12:41:04;100082.53;;;9.45;100.00
13952;BME280;39535;52.192;9.886;2023-02-18T12:43:41;100096.38;;;9.47;100.00
13952;BME280;39535;52.192;9.886;2023-02-18T12:46:21;100114.56;;;9.51;100.00
13952;BME280;39535;52.192;9.886;2023-02-18T12:49:02;100125.94;;;9.46;100.00
13952;BME280;39535;52.192;9.886;2023-02-18T12:51:39;100121.53;;;9.49;100.00
13952;BME280;39535;52.192;9.886;2023-02-18T12:54:27;100137.19;;;9.48;100.00
13952;BME280;39535;52.192;9.886;2023-02-18T12:57:06;100132.06;;;9.43;100.00
13952;BME280;39535;52.192;9.886;2023-02-18T12:59:54;100113.78;;;9.46;100.00
13952;BME280;39535;52.192;9.886;2023-02-18T13:02:37;100102.56;;;9.43;100.00
13952;BME280;39535;52.192;9.886;2023-02-18T13:05:17;100086.75;;;9.50;100.00
13952;BME280;39535;52.192;9.886;2023-02-18T13:08:02;100094.53;;;9.53;100.00
13952;BME280;39535;52.192;9.886;2023-02-18T13:10:51;100084.13;;;9.53;100.00
13952;BME280;39535;52.192;9.886;2023-02-18T13:13:21;100095.38;;;9.56;100.00